sensor_id;sensor_type;location;lat;lon;timestamp;P1;durP1;ratioP1;P2;durP2;ratioP2
71570;SDS011;59407;42.682;23.322;2022-08-19T00:00:08;10.07;;;6.17;;
71570;SDS011;59407;42.682;23.322;2022-08-19T00:02:36;11.00;;;6.68;;
71570;SDS011;59407;42.682;23.322;2022-08-19T00:05:02;11.73;;;6.68;;
71570;SDS011;59407;42.682;23.322;2022-08-19T00:10:05;11.25;;;6.30;;
71570;SDS011;59407;42.682;23.322;2022-08-19T00:12:31;9.90;;;6.43;;
71570;SDS011;59407;42.682;23.322;2022-08-19T00:14:58;14.80;;;7.40;;
71570;SDS011;59407;42.682;23.322;2022-08-19T00:17:26;12.70;;;7.43;;
71570;SDS011;59407;42.682;23.322;2022-08-19T00:19:54;13.05;;;6.55;;
71570;SDS011;59407;42.682;23.322;2022-08-19T00:22:23;11.32;;;7.15;;
71570;SDS011;59407;42.682;23.322;2022-08-19T00:24:53;11.38;;;6.70;;
71570;SDS011;59407;42.682;23.322;2022-08-19T00:27:22;9.82;;;6.57;;
71570;SDS011;59407;42.682;23.322;2022-08-19T00:29:56;11.27;;;6.97;;
71570;SDS011;59407;42.682;23.322;2022-08-19T00:32:21;12.13;;;6.97;;
71570;SDS011;59407;42.682;23.322;2022-08-19T00:34:47;11.48;;;6.95;;
71570;SDS011;59407;42.682;23.322;2022-08-19T00:37:13;8.93;;;6.13;;
71570;SDS011;59407;42.682;23.322;2022-08-19T00:39:38;12.43;;;7.10;;
71570;SDS011;59407;42.682;23.322;2022-08-19T00:42:06;13.23;;;6.20;;
71570;SDS011;59407;42.682;23.322;2022-08-19T00:44:32;11.10;;;6.90;;
71570;SDS011;59407;42.682;23.322;2022-08-19T00:46:58;10.77;;;7.03;;
71570;SDS011;59407;42.682;23.322;2022-08-19T00:49:34;10.70;;;6.78;;
71570;SDS011;59407;42.682;23.322;2022-08-19T00:52:02;12.13;;;6.60;;
71570;SDS011;59407;42.682;23.322;2022-08-19T00:54:31;11.93;;;6.97;;
71570;SDS011;59407;42.682;23.322;2022-08-19T00:56:59;10.98;;;6.88;;
71570;SDS011;59407;42.682;23.322;2022-08-19T00:59:28;11.40;;;6.68;;
71570;SDS011;59407;42.682;23.322;2022-08-19T01:01:54;11.02;;;7.35;;
71570;SDS011;59407;42.682;23.322;2022-08-19T01:04:19;10.03;;;7.23;;
71570;SDS011;59407;42.682;23.322;2022-08-19T01:06:45;13.10;;;7.03;;
71570;SDS011;59407;42.682;23.322;2022-08-19T01:09:12;8.90;;;7.20;;
71570;SDS011;59407;42.682;23.322;2022-08-19T01:11:39;10.32;;;6.82;;
71570;SDS011;59407;42.682;23.322;2022-08-19T01:14:08;10.00;;;6.77;;
71570;SDS011;59407;42.682;23.322;2022-08-19T01:16:34;11.88;;;8.15;;
71570;SDS011;59407;42.682;23.322;2022-08-19T01:19:01;13.60;;;7.38;;
71570;SDS011;59407;42.682;23.322;2022-08-19T01:21:28;11.48;;;7.45;;
71570;SDS011;59407;42.682;23.322;2022-08-19T01:23:59;10.53;;;7.23;;
71570;SDS011;59407;42.682;23.322;2022-08-19T01:26:25;9.82;;;7.80;;
71570;SDS011;59407;42.682;23.322;2022-08-19T01:28:53;8.82;;;6.90;;
71570;SDS011;59407;42.682;23.322;2022-08-19T01:31:21;9.02;;;6.97;;
71570;SDS011;59407;42.682;23.322;2022-08-19T01:33:57;10.40;;;6.82;;
71570;SDS011;59407;42.682;23.322;2022-08-19T01:36:35;9.60;;;6.53;;
71570;SDS011;59407;42.682;23.322;2022-08-19T01:39:13;9.23;;;6.93;;
71570;SDS011;59407;42.682;23.322;2022-08-19T01:42:12;11.05;;;7.20;;
71570;SDS011;59407;42.682;23.322;2022-08-19T01:44:59;10.05;;;6.72;;
71570;SDS011;59407;42.682;23.322;2022-08-19T01:47:27;8.00;;;6.03;;
71570;SDS011;59407;42.682;23.322;2022-08-19T01:49:53;8.93;;;6.47;;
71570;SDS011;59407;42.682;23.322;2022-08-19T01:52:22;9.33;;;6.50;;
71570;SDS011;59407;42.682;23.322;2022-08-19T01:54:53;10.85;;;7.63;;
71570;SDS011;59407;42.682;23.322;2022-08-19T01:57:21;10.57;;;7.05;;
71570;SDS011;59407;42.682;23.322;2022-08-19T02:00:04;8.80;;;6.57;;
71570;SDS011;59407;42.682;23.322;2022-08-19T02:02:32;8.85;;;6.60;;
71570;SDS011;59407;42.682;23.322;2022-08-19T02:05:08;8.73;;;6.97;;
71570;SDS011;59407;42.682;23.322;2022-08-19T02:07:52;11.82;;;7.78;;
71570;SDS011;59407;42.682;23.322;2022-08-19T02:10:21;12.63;;;8.40;;
71570;SDS011;59407;42.682;23.322;2022-08-19T02:12:56;11.80;;;8.15;;
71570;SDS011;59407;42.682;23.322;2022-08-19T02:15:45;11.13;;;7.70;;
71570;SDS011;59407;42.682;23.322;2022-08-19T02:18:17;12.13;;;7.77;;
71570;SDS011;59407;42.682;23.322;2022-08-19T02:20:45;11.50;;;7.75;;
71570;SDS011;59407;42.682;23.322;2022-08-19T02:25:50;12.48;;;7.88;;
71570;SDS011;59407;42.682;23.322;2022-08-19T02:28:16;10.73;;;7.65;;
71570;SDS011;59407;42.682;23.322;2022-08-19T02:30:45;10.53;;;7.50;;
71570;SDS011;59407;42.682;23.322;2022-08-19T02:33:11;14.65;;;7.50;;
71570;SDS011;59407;42.682;23.322;2022-08-19T02:35:41;10.75;;;7.25;;
71570;SDS011;59407;42.682;23.322;2022-08-19T02:38:10;11.17;;;8.20;;
71570;SDS011;59407;42.682;23.322;2022-08-19T02:40:51;12.05;;;7.20;;
71570;SDS011;59407;42.682;23.322;2022-08-19T02:43:31;10.98;;;8.00;;
71570;SDS011;59407;42.682;23.322;2022-08-19T02:45:59;9.45;;;7.65;;
71570;SDS011;59407;42.682;23.322;2022-08-19T02:48:25;11.23;;;7.50;;
71570;SDS011;59407;42.682;23.322;2022-08-19T02:50:51;11.15;;;8.18;;
71570;SDS011;59407;42.682;23.322;2022-08-19T02:53:20;13.15;;;7.88;;
71570;SDS011;59407;42.682;23.322;2022-08-19T02:55:49;11.10;;;7.25;;
71570;SDS011;59407;42.682;23.322;2022-08-19T02:58:15;9.93;;;7.43;;
71570;SDS011;59407;42.682;23.322;2022-08-19T03:00:42;10.57;;;8.38;;
71570;SDS011;59407;42.682;23.322;2022-08-19T03:03:13;10.10;;;7.40;;
71570;SDS011;59407;42.682;23.322;2022-08-19T03:05:39;10.60;;;7.90;;
71570;SDS011;59407;42.682;23.322;2022-08-19T03:08:05;11.90;;;7.63;;
71570;SDS011;59407;42.682;23.322;2022-08-19T03:10:33;11.27;;;8.30;;
71570;SDS011;59407;42.682;23.322;2022-08-19T03:12:58;11.20;;;7.35;;
71570;SDS011;59407;42.682;23.322;2022-08-19T03:15:24;9.43;;;7.67;;
71570;SDS011;59407;42.682;23.322;2022-08-19T03:17:58;9.85;;;7.82;;
71570;SDS011;59407;42.682;23.322;2022-08-19T03:20:24;11.40;;;8.38;;
71570;SDS011;59407;42.682;23.322;2022-08-19T03:22:53;14.63;;;8.43;;
71570;SDS011;59407;42.682;23.322;2022-08-19T03:25:25;12.30;;;8.17;;
71570;SDS011;59407;42.682;23.322;2022-08-19T03:27:50;16.00;;;9.32;;
71570;SDS011;59407;42.682;23.322;2022-08-19T03:30:16;8.90;;;7.10;;
71570;SDS011;59407;42.682;23.322;2022-08-19T03:32:44;10.82;;;8.30;;
71570;SDS011;59407;42.682;23.322;2022-08-19T03:35:10;17.20;;;9.00;;
71570;SDS011;59407;42.682;23.322;2022-08-19T03:37:38;16.02;;;11.43;;
71570;SDS011;59407;42.682;23.322;2022-08-19T03:40:06;15.80;;;9.87;;
71570;SDS011;59407;42.682;23.322;2022-08-19T03:42:38;17.05;;;9.02;;
71570;SDS011;59407;42.682;23.322;2022-08-19T03:45:07;13.98;;;9.23;;
71570;SDS011;59407;42.682;23.322;2022-08-19T03:47:41;14.88;;;8.75;;
71570;SDS011;59407;42.682;23.322;2022-08-19T03:50:11;14.00;;;8.88;;
71570;SDS011;59407;42.682;23.322;2022-08-19T03:52:51;16.23;;;8.77;;
71570;SDS011;59407;42.682;23.322;2022-08-19T03:55:31;12.48;;;8.80;;
71570;SDS011;59407;42.682;23.322;2022-08-19T03:58:06;16.35;;;9.88;;
71570;SDS011;59407;42.682;23.322;2022-08-19T04:00:46;13.10;;;9.32;;
71570;SDS011;59407;42.682;23.322;2022-08-19T04:03:44;13.32;;;9.13;;
71570;SDS011;59407;42.682;23.322;2022-08-19T04:10:04;13.27;;;8.75;;
71570;SDS011;59407;42.682;23.322;2022-08-19T04:12:56;13.38;;;8.68;;
71570;SDS011;59407;42.682;23.322;2022-08-19T04:15:22;13.40;;;8.60;;
71570;SDS011;59407;42.682;23.322;2022-08-19T04:17:53;13.30;;;9.85;;
71570;SDS011;59407;42.682;23.322;2022-08-19T04:20:19;16.33;;;9.97;;
71570;SDS011;59407;42.682;23.322;2022-08-19T04:22:47;13.68;;;8.77;;
71570;SDS011;59407;42.682;23.322;2022-08-19T04:25:13;15.10;;;9.10;;
71570;SDS011;59407;42.682;23.322;2022-08-19T04:27:38;20.67;;;9.83;;
71570;SDS011;59407;42.682;23.322;2022-08-19T04:30:04;22.37;;;9.50;;
71570;SDS011;59407;42.682;23.322;2022-08-19T04:32:30;18.10;;;9.65;;
71570;SDS011;59407;42.682;23.322;2022-08-19T04:34:56;13.95;;;8.80;;
71570;SDS011;59407;42.682;23.322;2022-08-19T04:37:23;12.85;;;8.73;;
71570;SDS011;59407;42.682;23.322;2022-08-19T04:39:51;21.93;;;9.20;;
71570;SDS011;59407;42.682;23.322;2022-08-19T04:42:52;16.23;;;10.07;;
71570;SDS011;59407;42.682;23.322;2022-08-19T04:45:18;18.50;;;9.18;;
71570;SDS011;59407;42.682;23.322;2022-08-19T04:47:44;13.97;;;9.80;;
71570;SDS011;59407;42.682;23.322;2022-08-19T04:50:09;14.32;;;9.18;;
71570;SDS011;59407;42.682;23.322;2022-08-19T04:52:36;13.95;;;9.20;;
71570;SDS011;59407;42.682;23.322;2022-08-19T04:55:02;12.68;;;9.40;;
71570;SDS011;59407;42.682;23.322;2022-08-19T04:57:30;14.97;;;9.60;;
71570;SDS011;59407;42.682;23.322;2022-08-19T04:59:56;14.57;;;9.47;;
71570;SDS011;59407;42.682;23.322;2022-08-19T05:02:22;15.47;;;9.80;;
71570;SDS011;59407;42.682;23.322;2022-08-19T05:07:38;14.05;;;9.93;;
71570;SDS011;59407;42.682;23.322;2022-08-19T05:10:05;14.82;;;10.07;;
71570;SDS011;59407;42.682;23.322;2022-08-19T05:12:30;13.07;;;9.97;;
71570;SDS011;59407;42.682;23.322;2022-08-19T05:18:06;17.90;;;10.60;;
71570;SDS011;59407;42.682;23.322;2022-08-19T05:20:53;14.55;;;10.15;;
71570;SDS011;59407;42.682;23.322;2022-08-19T05:23:37;16.67;;;10.20;;
71570;SDS011;59407;42.682;23.322;2022-08-19T05:29:24;14.40;;;10.80;;
71570;SDS011;59407;42.682;23.322;2022-08-19T06:06:49;12.88;;;9.70;;
71570;SDS011;59407;42.682;23.322;2022-08-19T06:09:36;16.83;;;9.60;;
71570;SDS011;59407;42.682;23.322;2022-08-19T06:12:27;11.73;;;8.35;;
71570;SDS011;59407;42.682;23.322;2022-08-19T06:18:55;15.48;;;8.13;;
71570;SDS011;59407;42.682;23.322;2022-08-19T06:25:06;13.20;;;8.32;;
71570;SDS011;59407;42.682;23.322;2022-08-19T06:27:34;13.20;;;8.70;;
71570;SDS011;59407;42.682;23.322;2022-08-19T06:30:00;10.97;;;8.33;;
71570;SDS011;59407;42.682;23.322;2022-08-19T06:32:27;11.70;;;9.10;;
71570;SDS011;59407;42.682;23.322;2022-08-19T06:34:52;10.53;;;8.30;;
71570;SDS011;59407;42.682;23.322;2022-08-19T06:37:22;13.45;;;8.35;;
71570;SDS011;59407;42.682;23.322;2022-08-19T06:39:53;12.17;;;8.50;;
71570;SDS011;59407;42.682;23.322;2022-08-19T06:42:28;10.95;;;7.88;;
71570;SDS011;59407;42.682;23.322;2022-08-19T06:51:17;12.52;;;8.02;;
71570;SDS011;59407;42.682;23.322;2022-08-19T06:53:58;13.20;;;7.97;;
71570;SDS011;59407;42.682;23.322;2022-08-19T06:57:02;14.93;;;8.45;;
71570;SDS011;59407;42.682;23.322;2022-08-19T06:59:34;12.68;;;8.07;;
71570;SDS011;59407;42.682;23.322;2022-08-19T07:02:04;12.02;;;8.15;;
71570;SDS011;59407;42.682;23.322;2022-08-19T07:04:31;13.35;;;8.75;;
71570;SDS011;59407;42.682;23.322;2022-08-19T07:07:02;15.63;;;8.87;;
71570;SDS011;59407;42.682;23.322;2022-08-19T07:09:43;11.82;;;7.90;;
71570;SDS011;59407;42.682;23.322;2022-08-19T07:12:18;12.48;;;8.65;;
71570;SDS011;59407;42.682;23.322;2022-08-19T07:14:47;13.88;;;8.30;;
71570;SDS011;59407;42.682;23.322;2022-08-19T07:17:13;13.25;;;8.25;;
71570;SDS011;59407;42.682;23.322;2022-08-19T07:19:42;11.93;;;8.10;;
71570;SDS011;59407;42.682;23.322;2022-08-19T07:22:09;12.65;;;8.15;;
71570;SDS011;59407;42.682;23.322;2022-08-19T07:24:35;15.20;;;9.55;;
71570;SDS011;59407;42.682;23.322;2022-08-19T07:27:02;13.50;;;8.40;;
71570;SDS011;59407;42.682;23.322;2022-08-19T07:29:32;12.65;;;7.80;;
71570;SDS011;59407;42.682;23.322;2022-08-19T07:31:59;14.47;;;7.97;;
71570;SDS011;59407;42.682;23.322;2022-08-19T07:34:26;15.60;;;8.20;;
71570;SDS011;59407;42.682;23.322;2022-08-19T07:36:53;17.60;;;7.68;;
71570;SDS011;59407;42.682;23.322;2022-08-19T07:39:28;13.60;;;8.75;;
71570;SDS011;59407;42.682;23.322;2022-08-19T07:41:56;14.05;;;7.50;;
71570;SDS011;59407;42.682;23.322;2022-08-19T07:44:22;13.57;;;7.40;;
71570;SDS011;59407;42.682;23.322;2022-08-19T07:46:49;13.38;;;7.20;;
71570;SDS011;59407;42.682;23.322;2022-08-19T07:49:17;9.43;;;6.75;;
71570;SDS011;59407;42.682;23.322;2022-08-19T07:51:44;10.85;;;7.00;;
71570;SDS011;59407;42.682;23.322;2022-08-19T08:00:57;9.38;;;7.07;;
71570;SDS011;59407;42.682;23.322;2022-08-19T08:14:11;12.73;;;6.97;;
71570;SDS011;59407;42.682;23.322;2022-08-19T08:17:38;9.63;;;6.90;;
71570;SDS011;59407;42.682;23.322;2022-08-19T08:20:30;13.02;;;6.68;;
71570;SDS011;59407;42.682;23.322;2022-08-19T08:23:00;11.30;;;6.78;;
71570;SDS011;59407;42.682;23.322;2022-08-19T08:25:44;10.63;;;6.60;;
71570;SDS011;59407;42.682;23.322;2022-08-19T08:31:53;9.13;;;6.20;;
71570;SDS011;59407;42.682;23.322;2022-08-19T08:34:24;10.23;;;6.88;;
71570;SDS011;59407;42.682;23.322;2022-08-19T08:48:56;8.82;;;5.82;;
71570;SDS011;59407;42.682;23.322;2022-08-19T09:36:27;6.87;;;3.57;;
71570;SDS011;59407;42.682;23.322;2022-08-19T09:39:04;5.95;;;3.25;;
71570;SDS011;59407;42.682;23.322;2022-08-19T11:39:59;6.93;;;4.70;;
71570;SDS011;59407;42.682;23.322;2022-08-19T11:46:22;5.73;;;4.60;;
71570;SDS011;59407;42.682;23.322;2022-08-19T11:49:17;6.47;;;4.22;;
71570;SDS011;59407;42.682;23.322;2022-08-19T11:51:59;7.90;;;4.40;;
71570;SDS011;59407;42.682;23.322;2022-08-19T12:01:19;9.20;;;4.50;;
71570;SDS011;59407;42.682;23.322;2022-08-19T12:07:41;7.60;;;4.47;;
71570;SDS011;59407;42.682;23.322;2022-08-19T12:10:22;7.30;;;4.38;;
71570;SDS011;59407;42.682;23.322;2022-08-19T12:13:02;6.45;;;4.40;;
71570;SDS011;59407;42.682;23.322;2022-08-19T12:15:35;5.77;;;4.40;;
71570;SDS011;59407;42.682;23.322;2022-08-19T12:18:01;6.57;;;5.07;;
71570;SDS011;59407;42.682;23.322;2022-08-19T12:20:27;7.60;;;5.00;;
71570;SDS011;59407;42.682;23.322;2022-08-19T12:22:53;5.80;;;4.57;;
71570;SDS011;59407;42.682;23.322;2022-08-19T12:25:18;8.67;;;4.90;;
71570;SDS011;59407;42.682;23.322;2022-08-19T12:27:44;7.27;;;5.10;;
71570;SDS011;59407;42.682;23.322;2022-08-19T12:30:10;10.40;;;6.17;;
71570;SDS011;59407;42.682;23.322;2022-08-19T12:32:36;6.90;;;5.10;;
71570;SDS011;59407;42.682;23.322;2022-08-19T12:35:03;11.25;;;4.90;;
71570;SDS011;59407;42.682;23.322;2022-08-19T12:37:32;7.63;;;4.85;;
71570;SDS011;59407;42.682;23.322;2022-08-19T12:39:57;8.70;;;4.88;;
71570;SDS011;59407;42.682;23.322;2022-08-19T12:42:33;7.20;;;4.57;;
71570;SDS011;59407;42.682;23.322;2022-08-19T12:45:02;7.47;;;4.13;;
71570;SDS011;59407;42.682;23.322;2022-08-19T12:47:31;8.32;;;5.00;;
71570;SDS011;59407;42.682;23.322;2022-08-19T12:50:05;8.68;;;4.65;;
71570;SDS011;59407;42.682;23.322;2022-08-19T12:52:34;8.43;;;4.57;;
71570;SDS011;59407;42.682;23.322;2022-08-19T12:55:30;8.43;;;4.83;;
71570;SDS011;59407;42.682;23.322;2022-08-19T13:05:48;4.97;;;3.63;;
71570;SDS011;59407;42.682;23.322;2022-08-19T13:12:07;7.73;;;4.07;;
71570;SDS011;59407;42.682;23.322;2022-08-19T13:14:43;8.23;;;4.38;;
71570;SDS011;59407;42.682;23.322;2022-08-19T13:17:14;6.95;;;4.43;;
71570;SDS011;59407;42.682;23.322;2022-08-19T13:19:40;6.93;;;4.00;;
71570;SDS011;59407;42.682;23.322;2022-08-19T13:22:09;10.13;;;4.03;;
71570;SDS011;59407;42.682;23.322;2022-08-19T13:24:34;6.63;;;4.47;;
71570;SDS011;59407;42.682;23.322;2022-08-19T13:27:10;7.67;;;4.37;;
71570;SDS011;59407;42.682;23.322;2022-08-19T13:29:39;6.90;;;3.85;;
71570;SDS011;59407;42.682;23.322;2022-08-19T13:32:26;9.00;;;6.35;;
71570;SDS011;59407;42.682;23.322;2022-08-19T13:35:13;8.02;;;4.63;;
71570;SDS011;59407;42.682;23.322;2022-08-19T13:37:41;7.28;;;5.10;;
71570;SDS011;59407;42.682;23.322;2022-08-19T13:40:08;6.07;;;3.93;;
71570;SDS011;59407;42.682;23.322;2022-08-19T13:42:42;6.68;;;4.50;;
71570;SDS011;59407;42.682;23.322;2022-08-19T13:45:13;11.38;;;5.35;;
71570;SDS011;59407;42.682;23.322;2022-08-19T13:47:51;9.07;;;4.87;;
71570;SDS011;59407;42.682;23.322;2022-08-19T13:50:27;7.78;;;5.00;;
71570;SDS011;59407;42.682;23.322;2022-08-19T13:53:49;5.88;;;4.20;;
71570;SDS011;59407;42.682;23.322;2022-08-19T13:56:43;6.45;;;4.10;;
71570;SDS011;59407;42.682;23.322;2022-08-19T13:59:09;5.53;;;4.10;;
71570;SDS011;59407;42.682;23.322;2022-08-19T14:01:35;6.10;;;4.10;;
71570;SDS011;59407;42.682;23.322;2022-08-19T14:04:02;5.85;;;3.47;;
71570;SDS011;59407;42.682;23.322;2022-08-19T14:06:36;6.40;;;3.88;;
71570;SDS011;59407;42.682;23.322;2022-08-19T14:09:02;6.07;;;4.20;;
71570;SDS011;59407;42.682;23.322;2022-08-19T14:11:28;12.07;;;4.18;;
71570;SDS011;59407;42.682;23.322;2022-08-19T14:13:54;5.15;;;3.72;;
71570;SDS011;59407;42.682;23.322;2022-08-19T14:16:19;6.00;;;4.47;;
71570;SDS011;59407;42.682;23.322;2022-08-19T14:18:46;7.72;;;4.05;;
71570;SDS011;59407;42.682;23.322;2022-08-19T14:21:16;5.50;;;4.03;;
71570;SDS011;59407;42.682;23.322;2022-08-19T14:23:58;6.50;;;4.00;;
71570;SDS011;59407;42.682;23.322;2022-08-19T14:26:46;6.68;;;4.63;;
71570;SDS011;59407;42.682;23.322;2022-08-19T14:29:14;6.17;;;4.30;;
71570;SDS011;59407;42.682;23.322;2022-08-19T14:32:01;5.68;;;4.68;;
71570;SDS011;59407;42.682;23.322;2022-08-19T14:34:34;6.80;;;4.33;;
71570;SDS011;59407;42.682;23.322;2022-08-19T14:37:39;6.78;;;4.78;;
71570;SDS011;59407;42.682;23.322;2022-08-19T14:40:08;10.77;;;5.00;;
71570;SDS011;59407;42.682;23.322;2022-08-19T14:42:41;8.40;;;5.20;;
71570;SDS011;59407;42.682;23.322;2022-08-19T14:45:10;7.93;;;4.75;;
71570;SDS011;59407;42.682;23.322;2022-08-19T14:47:45;10.03;;;4.93;;
71570;SDS011;59407;42.682;23.322;2022-08-19T14:50:10;7.35;;;4.05;;
71570;SDS011;59407;42.682;23.322;2022-08-19T14:53:18;6.67;;;4.23;;
71570;SDS011;59407;42.682;23.322;2022-08-19T14:55:32;7.60;;;4.70;;
71570;SDS011;59407;42.682;23.322;2022-08-19T14:57:59;8.10;;;4.32;;
71570;SDS011;59407;42.682;23.322;2022-08-19T15:00:27;5.63;;;4.30;;
71570;SDS011;59407;42.682;23.322;2022-08-19T15:03:04;7.43;;;4.23;;
71570;SDS011;59407;42.682;23.322;2022-08-19T15:05:41;6.70;;;4.60;;
71570;SDS011;59407;42.682;23.322;2022-08-19T15:12:04;8.35;;;4.47;;
71570;SDS011;59407;42.682;23.322;2022-08-19T15:15:19;5.95;;;4.63;;
71570;SDS011;59407;42.682;23.322;2022-08-19T15:21:57;7.85;;;4.88;;
71570;SDS011;59407;42.682;23.322;2022-08-19T15:24:24;7.47;;;4.97;;
71570;SDS011;59407;42.682;23.322;2022-08-19T15:26:54;10.15;;;4.88;;
71570;SDS011;59407;42.682;23.322;2022-08-19T15:29:23;7.07;;;4.70;;
71570;SDS011;59407;42.682;23.322;2022-08-19T15:34:57;7.22;;;4.80;;
71570;SDS011;59407;42.682;23.322;2022-08-19T15:41:13;10.93;;;5.45;;
71570;SDS011;59407;42.682;23.322;2022-08-19T15:43:50;9.23;;;5.10;;
71570;SDS011;59407;42.682;23.322;2022-08-19T16:00:12;8.13;;;5.10;;
71570;SDS011;59407;42.682;23.322;2022-08-19T16:02:56;12.70;;;5.27;;
71570;SDS011;59407;42.682;23.322;2022-08-19T16:05:42;10.50;;;5.22;;
71570;SDS011;59407;42.682;23.322;2022-08-19T16:08:26;7.20;;;5.10;;
71570;SDS011;59407;42.682;23.322;2022-08-19T16:14:02;8.15;;;5.47;;
71570;SDS011;59407;42.682;23.322;2022-08-19T16:16:36;10.80;;;5.20;;
71570;SDS011;59407;42.682;23.322;2022-08-19T16:28:50;8.80;;;5.97;;
71570;SDS011;59407;42.682;23.322;2022-08-19T16:34:03;7.90;;;5.30;;
71570;SDS011;59407;42.682;23.322;2022-08-19T16:36:43;9.32;;;5.07;;
71570;SDS011;59407;42.682;23.322;2022-08-19T16:40:04;11.47;;;5.67;;
71570;SDS011;59407;42.682;23.322;2022-08-19T16:42:32;7.57;;;5.25;;
71570;SDS011;59407;42.682;23.322;2022-08-19T16:44:59;7.68;;;5.38;;
71570;SDS011;59407;42.682;23.322;2022-08-19T16:47:25;10.63;;;5.57;;
71570;SDS011;59407;42.682;23.322;2022-08-19T16:50:23;13.05;;;5.38;;
71570;SDS011;59407;42.682;23.322;2022-08-19T16:52:49;9.00;;;5.60;;
71570;SDS011;59407;42.682;23.322;2022-08-19T16:55:36;11.07;;;5.82;;
71570;SDS011;59407;42.682;23.322;2022-08-19T16:58:09;10.53;;;5.80;;
71570;SDS011;59407;42.682;23.322;2022-08-19T17:00:45;10.13;;;6.57;;
71570;SDS011;59407;42.682;23.322;2022-08-19T17:03:15;10.13;;;5.47;;
71570;SDS011;59407;42.682;23.322;2022-08-19T17:05:50;8.25;;;5.47;;
71570;SDS011;59407;42.682;23.322;2022-08-19T17:11:22;12.03;;;6.47;;
71570;SDS011;59407;42.682;23.322;2022-08-19T17:13:50;8.70;;;5.47;;
71570;SDS011;59407;42.682;23.322;2022-08-19T17:16:17;12.20;;;5.38;;
71570;SDS011;59407;42.682;23.322;2022-08-19T17:18:59;9.98;;;5.85;;
71570;SDS011;59407;42.682;23.322;2022-08-19T17:21:29;9.57;;;5.50;;
71570;SDS011;59407;42.682;23.322;2022-08-19T17:23:59;9.37;;;5.40;;
71570;SDS011;59407;42.682;23.322;2022-08-19T17:26:25;10.30;;;6.43;;
71570;SDS011;59407;42.682;23.322;2022-08-19T17:28:52;11.23;;;5.85;;
71570;SDS011;59407;42.682;23.322;2022-08-19T17:34:06;8.70;;;4.95;;
71570;SDS011;59407;42.682;23.322;2022-08-19T17:36:33;11.97;;;6.30;;
71570;SDS011;59407;42.682;23.322;2022-08-19T17:38:59;7.90;;;5.82;;
71570;SDS011;59407;42.682;23.322;2022-08-19T17:41:26;9.73;;;5.60;;
71570;SDS011;59407;42.682;23.322;2022-08-19T17:43:58;10.75;;;6.78;;
71570;SDS011;59407;42.682;23.322;2022-08-19T17:46:23;16.47;;;11.83;;
71570;SDS011;59407;42.682;23.322;2022-08-19T17:48:49;10.05;;;7.40;;
71570;SDS011;59407;42.682;23.322;2022-08-19T17:51:23;9.52;;;6.22;;
71570;SDS011;59407;42.682;23.322;2022-08-19T17:53:59;11.95;;;7.68;;
71570;SDS011;59407;42.682;23.322;2022-08-19T17:56:24;12.73;;;6.93;;
71570;SDS011;59407;42.682;23.322;2022-08-19T17:58:53;10.98;;;6.25;;
71570;SDS011;59407;42.682;23.322;2022-08-19T18:01:18;9.55;;;6.38;;
71570;SDS011;59407;42.682;23.322;2022-08-19T18:03:44;10.90;;;7.30;;
71570;SDS011;59407;42.682;23.322;2022-08-19T18:06:10;9.90;;;7.00;;
71570;SDS011;59407;42.682;23.322;2022-08-19T18:08:47;11.10;;;6.82;;
71570;SDS011;59407;42.682;23.322;2022-08-19T18:21:30;15.32;;;7.35;;
71570;SDS011;59407;42.682;23.322;2022-08-19T18:24:17;14.18;;;6.78;;
71570;SDS011;59407;42.682;23.322;2022-08-19T18:26:50;9.67;;;6.97;;
71570;SDS011;59407;42.682;23.322;2022-08-19T18:29:24;13.57;;;8.63;;
71570;SDS011;59407;42.682;23.322;2022-08-19T18:32:24;11.07;;;7.45;;
71570;SDS011;59407;42.682;23.322;2022-08-19T18:34:58;12.60;;;7.57;;
71570;SDS011;59407;42.682;23.322;2022-08-19T18:37:24;11.13;;;7.35;;
71570;SDS011;59407;42.682;23.322;2022-08-19T18:39:53;17.87;;;12.00;;
71570;SDS011;59407;42.682;23.322;2022-08-19T18:42:42;11.90;;;7.63;;
71570;SDS011;59407;42.682;23.322;2022-08-19T18:45:48;11.43;;;7.60;;
71570;SDS011;59407;42.682;23.322;2022-08-19T18:48:32;19.50;;;8.50;;
71570;SDS011;59407;42.682;23.322;2022-08-19T18:51:16;10.60;;;7.67;;
71570;SDS011;59407;42.682;23.322;2022-08-19T18:53:43;10.60;;;7.13;;
71570;SDS011;59407;42.682;23.322;2022-08-19T18:56:10;12.23;;;8.13;;
71570;SDS011;59407;42.682;23.322;2022-08-19T18:58:38;10.10;;;6.63;;
71570;SDS011;59407;42.682;23.322;2022-08-19T19:01:08;11.00;;;7.60;;
71570;SDS011;59407;42.682;23.322;2022-08-19T19:03:39;11.63;;;7.13;;
71570;SDS011;59407;42.682;23.322;2022-08-19T19:06:07;10.70;;;7.28;;
71570;SDS011;59407;42.682;23.322;2022-08-19T19:08:33;12.18;;;7.35;;
71570;SDS011;59407;42.682;23.322;2022-08-19T19:11:00;12.50;;;7.67;;
71570;SDS011;59407;42.682;23.322;2022-08-19T19:13:29;10.27;;;6.85;;
71570;SDS011;59407;42.682;23.322;2022-08-19T19:15:56;10.15;;;7.22;;
71570;SDS011;59407;42.682;23.322;2022-08-19T19:18:25;9.90;;;7.25;;
71570;SDS011;59407;42.682;23.322;2022-08-19T19:20:50;13.57;;;8.80;;
71570;SDS011;59407;42.682;23.322;2022-08-19T19:23:17;11.55;;;8.05;;
71570;SDS011;59407;42.682;23.322;2022-08-19T19:25:44;17.67;;;7.63;;
71570;SDS011;59407;42.682;23.322;2022-08-19T19:28:10;16.20;;;7.73;;
71570;SDS011;59407;42.682;23.322;2022-08-19T19:30:36;11.25;;;6.95;;
71570;SDS011;59407;42.682;23.322;2022-08-19T19:33:01;10.35;;;7.05;;
71570;SDS011;59407;42.682;23.322;2022-08-19T19:35:29;10.03;;;6.90;;
71570;SDS011;59407;42.682;23.322;2022-08-19T19:37:55;10.55;;;6.95;;
71570;SDS011;59407;42.682;23.322;2022-08-19T19:40:21;11.30;;;7.05;;
71570;SDS011;59407;42.682;23.322;2022-08-19T19:42:47;13.35;;;7.80;;
71570;SDS011;59407;42.682;23.322;2022-08-19T19:45:14;13.60;;;7.90;;
71570;SDS011;59407;42.682;23.322;2022-08-19T19:47:40;22.37;;;9.17;;
71570;SDS011;59407;42.682;23.322;2022-08-19T19:50:11;14.70;;;9.60;;
71570;SDS011;59407;42.682;23.322;2022-08-19T19:52:37;14.88;;;9.10;;
71570;SDS011;59407;42.682;23.322;2022-08-19T19:55:03;14.40;;;10.10;;
71570;SDS011;59407;42.682;23.322;2022-08-19T19:57:29;18.73;;;9.10;;
71570;SDS011;59407;42.682;23.322;2022-08-19T19:59:55;22.57;;;11.73;;
71570;SDS011;59407;42.682;23.322;2022-08-19T20:02:20;14.00;;;9.70;;
71570;SDS011;59407;42.682;23.322;2022-08-19T20:04:46;14.27;;;8.63;;
71570;SDS011;59407;42.682;23.322;2022-08-19T20:07:12;16.70;;;8.32;;
71570;SDS011;59407;42.682;23.322;2022-08-19T20:09:38;12.60;;;8.00;;
71570;SDS011;59407;42.682;23.322;2022-08-19T20:12:04;11.50;;;8.00;;
71570;SDS011;59407;42.682;23.322;2022-08-19T20:14:31;11.48;;;7.15;;
71570;SDS011;59407;42.682;23.322;2022-08-19T20:16:57;12.70;;;8.10;;
71570;SDS011;59407;42.682;23.322;2022-08-19T20:19:25;9.82;;;7.03;;
71570;SDS011;59407;42.682;23.322;2022-08-19T20:21:55;11.95;;;7.38;;
71570;SDS011;59407;42.682;23.322;2022-08-19T20:24:22;10.25;;;7.25;;
71570;SDS011;59407;42.682;23.322;2022-08-19T20:26:49;11.52;;;7.35;;
71570;SDS011;59407;42.682;23.322;2022-08-19T20:29:16;14.00;;;7.90;;
71570;SDS011;59407;42.682;23.322;2022-08-19T20:31:43;14.63;;;7.65;;
71570;SDS011;59407;42.682;23.322;2022-08-19T20:34:09;14.50;;;8.00;;
71570;SDS011;59407;42.682;23.322;2022-08-19T20:36:35;14.80;;;8.47;;
71570;SDS011;59407;42.682;23.322;2022-08-19T20:39:03;14.02;;;7.75;;
71570;SDS011;59407;42.682;23.322;2022-08-19T20:41:29;18.77;;;8.07;;